createdAt,value
2018-11-03T00:01:40.823Z,13.67
2018-11-03T00:03:43.896Z,13.90
2018-11-03T00:05:46.944Z,13.70
2018-11-03T00:07:49.971Z,14.83
2018-11-03T00:09:52.967Z,15.33
2018-11-03T00:11:56.321Z,14.60
2018-11-03T00:13:59.351Z,14.63
2018-11-03T00:16:04.165Z,13.80
2018-11-03T00:18:07.657Z,14.30
2018-11-03T00:20:10.693Z,16.13
2018-11-03T00:22:13.792Z,16.27
2018-11-03T00:24:17.070Z,15.67
2018-11-03T00:26:20.119Z,13.80
2018-11-03T00:28:23.129Z,16.63
2018-11-03T00:30:26.688Z,15.07
2018-11-03T00:32:29.709Z,15.23
2018-11-03T00:34:34.084Z,14.13
2018-11-03T00:36:37.135Z,13.77
2018-11-03T00:38:40.117Z,14.17
2018-11-03T00:40:43.213Z,15.60
2018-11-03T00:42:46.209Z,15.13
2018-11-03T00:44:49.206Z,14.27
2018-11-03T00:46:52.229Z,14.93
2018-11-03T00:48:55.289Z,15.60
2018-11-03T00:50:58.293Z,14.20
2018-11-03T00:53:01.311Z,15.37
2018-11-03T00:55:06.817Z,15.23
2018-11-03T00:57:09.829Z,15.57
2018-11-03T00:59:12.897Z,14.03
2018-11-03T01:01:15.897Z,15.57
2018-11-03T01:03:18.976Z,14.70
2018-11-03T01:05:22.009Z,15.47
2018-11-03T01:07:25.023Z,17.80
2018-11-03T01:09:28.110Z,14.87
2018-11-03T01:11:31.140Z,14.33
2018-11-03T01:13:35.836Z,15.00
2018-11-03T01:15:38.903Z,13.07
2018-11-03T01:17:41.939Z,13.77
2018-11-03T01:19:45.250Z,14.10
2018-11-03T01:21:48.305Z,15.17
2018-11-03T01:23:51.371Z,13.63
2018-11-03T01:25:54.458Z,12.60
2018-11-03T01:27:57.592Z,15.20
2018-11-03T01:30:00.665Z,16.87
2018-11-03T01:32:05.716Z,17.43
2018-11-03T01:34:08.832Z,15.50
2018-11-03T01:36:11.896Z,16.90
2018-11-03T01:38:14.969Z,16.00
2018-11-03T01:40:18.073Z,19.10
2018-11-03T01:42:21.422Z,16.40
2018-11-03T01:44:24.420Z,15.90
2018-11-03T01:46:27.434Z,14.80
2018-11-03T01:48:30.468Z,15.40
2018-11-03T01:50:35.295Z,14.57
2018-11-03T01:52:39.267Z,14.60
2018-11-03T01:54:42.235Z,14.97
2018-11-03T01:56:45.392Z,15.33
2018-11-03T01:58:49.044Z,17.93
2018-11-03T02:00:52.131Z,13.93
2018-11-03T02:02:55.179Z,16.17
2018-11-03T02:04:58.306Z,15.40
2018-11-03T02:07:01.448Z,17.67
2018-11-03T02:09:07.271Z,17.47
2018-11-03T02:11:10.828Z,15.80
2018-11-03T02:13:13.872Z,16.80
2018-11-03T02:15:16.938Z,17.10
2018-11-03T02:17:20.036Z,15.63
2018-11-03T02:19:25.941Z,15.53
2018-11-03T02:21:28.989Z,16.50
2018-11-03T02:23:32.351Z,16.60
2018-11-03T02:25:35.820Z,16.43
2018-11-03T02:27:38.858Z,15.57
2018-11-03T02:29:42.213Z,16.07
2018-11-03T02:31:45.303Z,16.47
2018-11-03T02:33:48.331Z,16.13
2018-11-03T02:35:51.418Z,17.63
2018-11-03T02:37:54.454Z,17.73
2018-11-03T02:39:57.564Z,16.17
2018-11-03T02:42:00.638Z,18.83
2018-11-03T02:44:05.516Z,19.20
2018-11-03T02:46:08.539Z,18.23
2018-11-03T02:48:11.582Z,17.07
2018-11-03T02:50:14.652Z,16.87
2018-11-03T02:52:17.813Z,16.67
2018-11-03T02:54:20.902Z,19.00
2018-11-03T02:56:23.980Z,17.83
2018-11-03T02:58:27.081Z,16.57
2018-11-03T03:00:30.145Z,19.70
2018-11-03T03:02:34.704Z,18.90
2018-11-03T03:04:37.758Z,19.13
2018-11-03T03:06:40.889Z,18.10
2018-11-03T03:08:45.389Z,16.07
2018-11-03T03:10:48.488Z,16.93
2018-11-03T03:12:51.600Z,18.77
2018-11-03T03:14:54.704Z,17.47
2018-11-03T03:16:57.801Z,17.73
2018-11-03T03:19:00.857Z,18.27
2018-11-03T03:21:06.014Z,19.93
2018-11-03T03:23:09.136Z,21.13
2018-11-03T03:25:12.271Z,24.10
2018-11-03T03:27:15.345Z,25.50
2018-11-03T03:29:18.400Z,22.07
2018-11-03T03:31:21.542Z,20.77
2018-11-03T03:33:24.630Z,18.00
2018-11-03T03:35:27.635Z,18.80
2018-11-03T03:37:30.652Z,17.13
2018-11-03T03:39:35.194Z,18.67
2018-11-03T03:41:38.682Z,21.30
2018-11-03T03:43:41.697Z,17.50
2018-11-03T03:45:44.710Z,18.60
2018-11-03T03:47:47.697Z,16.83
2018-11-03T03:49:50.860Z,21.00
2018-11-03T03:51:53.854Z,21.57
2018-11-03T03:53:57.201Z,20.50
2018-11-03T03:56:00.191Z,21.93
2018-11-03T03:58:04.915Z,18.97
2018-11-03T04:00:09.927Z,22.23
2018-11-03T04:02:13.061Z,18.67
2018-11-03T04:04:16.359Z,18.07
2018-11-03T04:06:19.399Z,19.60
2018-11-03T04:08:22.359Z,21.30
2018-11-03T04:10:25.675Z,20.10
2018-11-03T04:12:28.754Z,22.03
2018-11-03T04:14:33.403Z,19.10
2018-11-03T04:16:36.502Z,17.73
2018-11-03T04:18:39.652Z,18.53
2018-11-03T04:20:42.628Z,21.63
2018-11-03T04:22:45.938Z,19.97
2018-11-03T04:24:48.927Z,18.23
2018-11-03T04:26:51.883Z,21.23
2018-11-03T04:28:55.570Z,17.63
2018-11-03T04:30:58.646Z,18.53
2018-11-03T04:33:03.271Z,19.33
2018-11-03T04:35:06.693Z,19.50
2018-11-03T04:37:09.688Z,19.00
2018-11-03T04:39:12.728Z,18.03
2018-11-03T04:41:15.812Z,17.23
2018-11-03T04:43:18.810Z,17.07
2018-11-03T04:45:21.858Z,18.47
2018-11-03T04:47:24.906Z,20.67
2018-11-03T04:49:27.969Z,24.20
2018-11-03T04:51:34.141Z,20.43
2018-11-03T04:53:37.238Z,20.17
2018-11-03T04:55:40.246Z,18.47
2018-11-03T04:57:43.221Z,19.10
2018-11-03T04:59:46.390Z,21.53
2018-11-03T05:01:49.510Z,20.63
2018-11-03T05:03:52.514Z,20.87
2018-11-03T05:05:55.658Z,17.77
2018-11-03T05:07:58.707Z,18.17
2018-11-03T05:10:03.458Z,25.60
2018-11-03T05:12:06.443Z,18.17
2018-11-03T05:14:10.048Z,17.97
2018-11-03T05:16:13.047Z,22.10
2018-11-03T05:18:16.039Z,19.20
2018-11-03T05:20:19.026Z,19.97
2018-11-03T05:22:22.121Z,19.40
2018-11-03T05:24:25.246Z,20.30
2018-11-03T05:26:28.227Z,21.83
2018-11-03T05:28:31.199Z,21.70
2018-11-03T05:30:35.563Z,23.73
2018-11-03T05:32:38.534Z,24.80
2018-11-03T05:34:41.563Z,22.10
2018-11-03T05:36:44.585Z,22.77
2018-11-03T05:38:47.683Z,20.03
2018-11-03T05:40:50.704Z,21.57
2018-11-03T05:42:53.700Z,23.00
2018-11-03T05:44:56.703Z,21.40
2018-11-03T05:47:00.184Z,25.57
2018-11-03T05:49:04.986Z,23.93
2018-11-03T05:51:08.014Z,24.70
2018-11-03T05:53:11.085Z,22.87
2018-11-03T05:55:14.076Z,24.80
2018-11-03T05:57:17.081Z,22.00
2018-11-03T05:59:20.095Z,28.13
2018-11-03T06:01:23.081Z,24.40
2018-11-03T06:03:26.145Z,25.27
2018-11-03T06:05:29.151Z,30.10
2018-11-03T06:07:33.804Z,27.00
2018-11-03T06:09:36.955Z,25.17
2018-11-03T06:11:40.215Z,30.97
2018-11-03T06:13:43.226Z,28.53
2018-11-03T06:15:46.251Z,26.27
2018-11-03T06:17:49.633Z,27.50
2018-11-03T06:19:52.614Z,26.37
2018-11-03T06:21:55.646Z,25.70
2018-11-03T06:23:58.663Z,23.17
2018-11-03T06:26:03.352Z,32.53
2018-11-03T06:28:06.730Z,21.97
2018-11-03T06:30:10.710Z,25.37
2018-11-03T06:32:13.810Z,25.20
2018-11-03T06:34:17.146Z,23.50
2018-11-03T06:36:20.175Z,24.17
2018-11-03T06:38:23.436Z,26.40
2018-11-03T06:40:26.450Z,23.00
2018-11-03T06:42:29.473Z,21.00
2018-11-03T06:44:34.185Z,23.20
2018-11-03T06:46:37.253Z,23.73
2018-11-03T06:48:40.355Z,21.67
2018-11-03T06:50:43.346Z,28.43
2018-11-03T06:52:46.368Z,19.63
2018-11-03T06:54:49.485Z,24.13
2018-11-03T06:56:52.509Z,22.00
2018-11-03T06:58:55.535Z,18.43
2018-11-03T07:00:58.533Z,22.27
2018-11-03T07:03:03.471Z,21.13
2018-11-03T07:05:07.135Z,18.70
2018-11-03T07:07:10.124Z,23.77
2018-11-03T07:09:13.302Z,23.10
2018-11-03T07:11:16.309Z,24.90
2018-11-03T07:13:19.379Z,26.10
2018-11-03T07:15:22.304Z,23.73
2018-11-03T07:17:25.295Z,20.20
2018-11-03T07:19:28.303Z,20.33
2018-11-03T07:21:33.013Z,27.30
2018-11-03T07:23:36.104Z,21.30
2018-11-03T07:25:39.079Z,24.67
2018-11-03T07:27:42.513Z,25.10
2018-11-03T07:29:45.519Z,21.60
2018-11-03T07:31:48.470Z,22.20
2018-11-03T07:33:51.526Z,20.17
2018-11-03T07:35:54.585Z,19.23
2018-11-03T07:37:57.583Z,21.70
2018-11-03T07:40:00.671Z,24.43
2018-11-03T07:42:05.472Z,21.40
2018-11-03T07:44:08.660Z,23.63
2018-11-03T07:46:11.627Z,24.80
2018-11-03T07:48:14.815Z,24.67
2018-11-03T07:50:17.731Z,27.57
2018-11-03T07:52:20.735Z,20.40
2018-11-03T07:54:23.777Z,21.07
2018-11-03T07:56:26.828Z,20.67
2018-11-03T07:58:29.827Z,22.10
2018-11-03T08:00:34.183Z,24.70
2018-11-03T08:02:37.093Z,22.00
2018-11-03T08:04:40.077Z,22.77
2018-11-03T08:06:43.392Z,25.20
2018-11-03T08:08:46.389Z,25.73
2018-11-03T08:10:49.478Z,25.53
2018-11-03T08:12:52.491Z,20.60
2018-11-03T08:14:55.501Z,21.30
2018-11-03T08:16:58.500Z,23.13
2018-11-03T08:19:01.591Z,24.23
2018-11-03T08:21:05.705Z,25.07
2018-11-03T08:23:08.778Z,29.37
2018-11-03T08:25:11.781Z,24.83
2018-11-03T08:27:14.832Z,26.53
2018-11-03T08:29:17.838Z,24.93
2018-11-03T08:31:20.948Z,23.33
2018-11-03T08:33:23.873Z,24.63
2018-11-03T08:35:26.904Z,23.60
2018-11-03T08:37:29.918Z,21.47
2018-11-03T08:39:34.576Z,26.90
2018-11-03T08:41:37.954Z,23.83
2018-11-03T08:43:40.973Z,24.60
2018-11-03T08:45:43.986Z,21.97
2018-11-03T08:47:47.011Z,22.43
2018-11-03T08:49:50.088Z,22.80
2018-11-03T08:51:53.399Z,22.70
2018-11-03T08:53:56.433Z,28.80
2018-11-03T08:55:59.554Z,23.40
2018-11-03T08:58:03.873Z,25.20
2018-11-03T09:00:11.716Z,23.50
2018-11-03T09:02:14.774Z,28.77
2018-11-03T09:04:17.756Z,25.53
2018-11-03T09:06:20.839Z,22.30
2018-11-03T09:08:23.968Z,23.47
2018-11-03T09:10:26.946Z,24.20
2018-11-03T09:12:30.331Z,23.50
2018-11-03T09:14:34.796Z,27.80
2018-11-03T09:16:37.820Z,22.77
2018-11-03T09:18:41.995Z,23.33
2018-11-03T09:20:44.989Z,27.17
2018-11-03T09:22:48.088Z,23.57
2018-11-03T09:24:51.091Z,27.50
2018-11-03T09:26:54.143Z,19.73
2018-11-03T09:28:57.178Z,25.53
2018-11-03T09:31:00.161Z,22.00
2018-11-03T09:33:04.776Z,25.20
2018-11-03T09:35:08.721Z,24.90
2018-11-03T09:37:11.787Z,20.67
2018-11-03T09:39:15.281Z,27.33
2018-11-03T09:41:18.177Z,29.73
2018-11-03T09:43:21.244Z,22.97
2018-11-03T09:45:24.241Z,22.43
2018-11-03T09:47:27.314Z,22.27
2018-11-03T09:49:33.610Z,28.07
2018-11-03T09:51:36.695Z,23.60
2018-11-03T09:53:39.914Z,24.70
2018-11-03T09:55:42.992Z,25.17
2018-11-03T09:57:46.075Z,22.60
2018-11-03T09:59:49.190Z,21.53
2018-11-03T10:01:52.354Z,22.53
2018-11-03T10:03:55.448Z,22.97
2018-11-03T10:05:58.604Z,23.27
2018-11-03T10:08:02.214Z,23.43
2018-11-03T10:10:09.150Z,26.17
2018-11-03T10:12:12.209Z,24.47
2018-11-03T10:14:15.320Z,25.60
2018-11-03T10:16:18.405Z,23.50
2018-11-03T10:18:21.513Z,24.40
2018-11-03T10:20:24.620Z,25.43
2018-11-03T10:22:27.706Z,24.43
2018-11-03T10:24:30.956Z,27.07
2018-11-03T10:26:35.613Z,29.83
2018-11-03T10:28:38.766Z,28.17
2018-11-03T10:30:41.822Z,27.20
2018-11-03T10:32:45.266Z,25.17
2018-11-03T10:34:48.266Z,25.93
2018-11-03T10:36:51.387Z,24.93
2018-11-03T10:38:54.490Z,27.00
2018-11-03T10:40:57.606Z,20.20
2018-11-03T10:43:00.705Z,21.50
2018-11-03T10:45:06.604Z,22.00
2018-11-03T10:47:09.713Z,20.20
2018-11-03T10:49:12.963Z,21.03
2018-11-03T10:51:15.990Z,20.83
2018-11-03T10:53:19.019Z,23.90
2018-11-03T10:55:22.053Z,22.03
2018-11-03T10:57:25.184Z,20.77
2018-11-03T10:59:28.192Z,21.67
2018-11-03T11:01:36.883Z,26.67
2018-11-03T11:03:45.633Z,22.57
2018-11-03T11:05:54.283Z,23.30
2018-11-03T11:08:02.979Z,19.63
2018-11-03T11:10:11.736Z,22.27
2018-11-03T11:12:20.621Z,18.70
2018-11-03T11:14:23.626Z,19.10
2018-11-03T11:16:26.678Z,21.57
2018-11-03T11:18:29.629Z,20.80
2018-11-03T11:20:33.204Z,22.53
2018-11-03T11:22:36.297Z,19.77
2018-11-03T11:24:39.450Z,19.67
2018-11-03T11:26:42.463Z,21.80
2018-11-03T11:28:45.511Z,21.00
2018-11-03T11:30:48.591Z,21.20
2018-11-03T11:32:51.895Z,20.20
2018-11-03T11:34:54.885Z,21.27
2018-11-03T11:36:57.989Z,24.07
2018-11-03T11:39:00.979Z,27.90
2018-11-03T11:41:05.315Z,25.17
2018-11-03T11:43:09.535Z,23.00
2018-11-03T11:45:12.407Z,23.20
2018-11-03T11:47:15.425Z,27.23
2018-11-03T11:49:18.488Z,17.53
2018-11-03T11:51:21.503Z,18.20
2018-11-03T11:53:24.465Z,14.53
2018-11-03T11:55:27.506Z,17.43
2018-11-03T11:57:30.648Z,15.00
2018-11-03T11:59:34.685Z,16.80
2018-11-03T12:01:37.885Z,18.50
2018-11-03T12:03:40.899Z,19.50
2018-11-03T12:05:43.897Z,16.23
2018-11-03T12:07:46.896Z,15.67
2018-11-03T12:09:50.188Z,20.40
2018-11-03T12:11:53.208Z,14.43
2018-11-03T12:13:56.495Z,30.23
2018-11-03T12:15:59.551Z,23.27
2018-11-03T12:18:04.439Z,60.13
2018-11-03T12:20:08.128Z,34.53
2018-11-03T12:22:11.491Z,24.73
2018-11-03T12:24:14.846Z,16.20
2018-11-03T12:26:17.894Z,14.30
2018-11-03T12:28:20.917Z,15.00
2018-11-03T12:30:23.929Z,13.10
2018-11-03T12:32:26.986Z,12.87
2018-11-03T12:34:30.017Z,12.50
2018-11-03T12:36:34.878Z,14.73
2018-11-03T12:38:38.026Z,15.40
2018-11-03T12:40:41.058Z,14.47
2018-11-03T12:42:44.474Z,15.00
2018-11-03T12:44:47.442Z,21.83
2018-11-03T12:46:50.460Z,15.07
2018-11-03T12:48:54.093Z,15.30
2018-11-03T12:50:57.054Z,15.90
2018-11-03T12:53:00.058Z,13.73
2018-11-03T12:55:05.326Z,16.60
2018-11-03T12:57:08.367Z,17.00
2018-11-03T12:59:11.418Z,16.00
2018-11-03T13:01:14.467Z,19.07
2018-11-03T13:03:17.578Z,18.60
2018-11-03T13:05:20.764Z,49.97
2018-11-03T13:07:24.696Z,14.83
2018-11-03T13:09:27.818Z,16.03
2018-11-03T13:11:30.692Z,14.67
2018-11-03T13:13:35.083Z,17.43
2018-11-03T13:15:38.117Z,19.97
2018-11-03T13:17:41.062Z,20.00
2018-11-03T13:19:44.067Z,20.73
2018-11-03T13:21:47.123Z,24.13
2018-11-03T13:23:50.532Z,18.93
2018-11-03T13:25:53.579Z,21.83
2018-11-03T13:27:56.625Z,25.67
2018-11-03T13:29:59.609Z,30.13
2018-11-03T13:32:03.746Z,20.13
2018-11-03T13:34:06.858Z,18.20
2018-11-03T13:36:09.895Z,16.23
2018-11-03T13:38:12.848Z,16.20
2018-11-03T13:40:15.875Z,14.40
2018-11-03T13:42:18.934Z,14.13
2018-11-03T13:44:22.019Z,13.47
2018-11-03T13:46:25.033Z,15.03
2018-11-03T13:48:28.037Z,19.00
2018-11-03T13:50:31.094Z,16.40
2018-11-03T13:52:34.853Z,14.23
2018-11-03T13:54:37.918Z,13.90
2018-11-03T13:56:40.955Z,15.57
2018-11-03T13:58:44.292Z,17.13
2018-11-03T14:00:47.395Z,15.03
2018-11-03T14:02:50.425Z,13.63
2018-11-03T14:04:53.575Z,15.90
2018-11-03T14:06:56.662Z,20.20
2018-11-03T14:08:59.909Z,16.17
2018-11-03T14:11:04.232Z,15.87
2018-11-03T14:13:07.323Z,16.13
2018-11-03T14:15:12.064Z,20.00
2018-11-03T14:17:15.109Z,17.77
2018-11-03T14:19:18.087Z,16.07
2018-11-03T14:21:21.087Z,18.50
2018-11-03T14:23:24.156Z,20.70
2018-11-03T14:25:27.114Z,15.20
2018-11-03T14:27:30.174Z,16.13
2018-11-03T14:29:34.757Z,14.13
2018-11-03T14:31:37.778Z,22.57
2018-11-03T14:33:40.771Z,16.30
2018-11-03T14:35:43.753Z,16.20
2018-11-03T14:37:46.750Z,17.67
2018-11-03T14:39:49.747Z,14.23
2018-11-03T14:41:52.787Z,17.67
2018-11-03T14:43:55.763Z,14.80
2018-11-03T14:45:58.848Z,20.33
2018-11-03T14:48:03.681Z,15.63
2018-11-03T14:50:07.913Z,17.37
2018-11-03T14:52:10.929Z,21.07
2018-11-03T14:54:13.951Z,17.33
2018-11-03T14:56:17.005Z,20.43
2018-11-03T14:58:20.007Z,19.17
2018-11-03T15:00:23.304Z,19.27
2018-11-03T15:02:26.275Z,17.67
2018-11-03T15:04:29.369Z,27.00
2018-11-03T15:06:33.721Z,24.10
2018-11-03T15:08:36.852Z,27.50
2018-11-03T15:10:39.791Z,26.00
2018-11-03T15:12:44.080Z,21.83
2018-11-03T15:14:47.088Z,20.63
2018-11-03T15:16:50.113Z,19.00
2018-11-03T15:18:53.250Z,37.70
2018-11-03T15:20:56.210Z,24.70
2018-11-03T15:22:59.215Z,37.97
2018-11-03T15:25:03.723Z,40.33
2018-11-03T15:27:06.735Z,31.20
2018-11-03T15:29:09.760Z,23.20
2018-11-03T15:31:12.893Z,18.20
2018-11-03T15:33:15.914Z,23.33
2018-11-03T15:35:18.870Z,21.93
2018-11-03T15:37:21.950Z,20.80
2018-11-03T15:39:24.926Z,21.30
2018-11-03T15:41:27.984Z,30.90
2018-11-03T15:43:30.968Z,35.33
2018-11-03T15:45:35.323Z,31.53
2018-11-03T15:47:38.378Z,26.50
2018-11-03T15:49:41.404Z,25.07
2018-11-03T15:51:44.380Z,22.97
2018-11-03T15:53:48.290Z,21.67
2018-11-03T15:55:51.251Z,25.83
2018-11-03T15:57:54.246Z,21.43
2018-11-03T15:59:57.266Z,25.70
2018-11-03T16:02:00.311Z,28.43
2018-11-03T16:04:03.710Z,29.90
2018-11-03T16:06:06.731Z,27.03
2018-11-03T16:08:09.840Z,32.40
2018-11-03T16:10:12.911Z,31.83
2018-11-03T16:12:15.998Z,23.10
2018-11-03T16:14:19.023Z,26.23
2018-11-03T16:16:22.107Z,19.43
2018-11-03T16:18:25.151Z,23.43
2018-11-03T16:20:28.214Z,31.10
2018-11-03T16:22:31.411Z,23.73
2018-11-03T16:24:35.688Z,21.07
2018-11-03T16:26:38.945Z,21.83
2018-11-03T16:28:41.948Z,22.30
2018-11-03T16:30:45.656Z,25.23
2018-11-03T16:32:49.351Z,22.80
2018-11-03T16:34:52.485Z,18.63
2018-11-03T16:36:55.500Z,23.57
2018-11-03T16:38:58.477Z,28.53
2018-11-03T16:41:01.480Z,21.33
2018-11-03T16:43:06.015Z,24.33
2018-11-03T16:45:10.496Z,22.93
2018-11-03T16:47:13.470Z,19.40
2018-11-03T16:49:18.911Z,30.33
2018-11-03T16:51:21.999Z,22.67
2018-11-03T16:53:25.018Z,19.87
2018-11-03T16:55:29.650Z,21.43
2018-11-03T16:57:33.654Z,25.50
2018-11-03T16:59:36.712Z,22.03
2018-11-03T17:01:39.682Z,26.23
2018-11-03T17:03:42.795Z,23.63
2018-11-03T17:05:45.839Z,20.63
2018-11-03T17:07:48.870Z,21.47
2018-11-03T17:09:51.982Z,27.17
2018-11-03T17:11:55.856Z,32.70
2018-11-03T17:13:58.846Z,27.57
2018-11-03T17:16:02.392Z,31.97
2018-11-03T17:18:05.589Z,25.60
2018-11-03T17:20:09.280Z,28.10
2018-11-03T17:22:12.324Z,26.03
2018-11-03T17:24:15.466Z,30.10
2018-11-03T17:26:18.625Z,24.07
2018-11-03T17:28:21.746Z,28.13
2018-11-03T17:30:24.762Z,27.07
2018-11-03T17:32:27.790Z,22.03
2018-11-03T17:34:31.379Z,22.17
2018-11-03T17:36:34.489Z,17.57
2018-11-03T17:38:37.555Z,23.00
2018-11-03T17:40:40.598Z,20.40
2018-11-03T17:42:43.619Z,18.50
2018-11-03T17:44:46.714Z,14.13
2018-11-03T17:46:49.843Z,16.60
2018-11-03T17:48:52.889Z,16.23
2018-11-03T17:50:55.909Z,19.30
2018-11-03T17:52:58.924Z,17.57
2018-11-03T17:55:02.718Z,18.70
2018-11-03T17:57:05.926Z,25.10
2018-11-03T17:59:09.029Z,21.00
2018-11-03T18:01:12.178Z,20.10
2018-11-03T18:03:15.077Z,22.57
2018-11-03T18:05:18.115Z,20.03
2018-11-03T18:07:21.270Z,20.50
2018-11-03T18:09:26.118Z,22.27
2018-11-03T18:11:29.208Z,19.80
2018-11-03T18:13:33.820Z,19.67
2018-11-03T18:15:36.985Z,18.47
2018-11-03T18:17:40.556Z,23.97
2018-11-03T18:19:43.729Z,20.33
2018-11-03T18:21:46.728Z,20.23
2018-11-03T18:23:49.743Z,19.97
2018-11-03T18:25:53.374Z,21.90
2018-11-03T18:27:56.588Z,20.15
2018-11-03T18:29:59.644Z,17.13
2018-11-03T18:32:04.370Z,18.20
2018-11-03T18:34:07.456Z,17.67
2018-11-03T18:36:10.496Z,14.47
2018-11-03T18:38:13.844Z,20.20
2018-11-03T18:40:16.961Z,22.13
2018-11-03T18:42:20.082Z,14.40
2018-11-03T18:44:23.420Z,9.80
2018-11-03T18:46:26.421Z,15.43
2018-11-03T18:48:29.466Z,14.87
2018-11-03T18:50:33.878Z,16.70
2018-11-03T18:52:36.903Z,19.87
2018-11-03T18:54:39.988Z,16.03
2018-11-03T18:56:43.027Z,18.27
2018-11-03T18:58:47.466Z,21.07
2018-11-03T19:00:50.527Z,18.80
2018-11-03T19:02:53.639Z,22.23
2018-11-03T19:04:56.723Z,21.00
2018-11-03T19:06:59.891Z,17.70
2018-11-03T19:09:05.563Z,12.03
2018-11-03T19:11:09.268Z,9.60
2018-11-03T19:13:12.592Z,7.90
2018-11-03T19:15:15.672Z,9.27
2018-11-03T19:17:19.018Z,9.10
2018-11-03T19:19:22.045Z,8.83
2018-11-03T19:21:25.086Z,11.43
2018-11-03T19:23:28.157Z,11.70
2018-11-03T19:25:31.214Z,12.70
2018-11-03T19:27:34.993Z,13.90
2018-11-03T19:29:38.186Z,13.00
2018-11-03T19:31:41.207Z,13.03
2018-11-03T19:33:44.506Z,13.27
2018-11-03T19:35:47.608Z,11.07
2018-11-03T19:37:50.576Z,11.50
2018-11-03T19:39:53.596Z,12.47
2018-11-03T19:41:56.619Z,11.10
2018-11-03T19:43:59.619Z,12.20
2018-11-03T19:46:04.189Z,10.20
2018-11-03T19:48:07.220Z,11.50
2018-11-03T19:50:10.313Z,15.13
2018-11-03T19:52:13.378Z,12.57
2018-11-03T19:54:16.760Z,15.60
2018-11-03T19:56:19.770Z,17.03
2018-11-03T19:58:22.877Z,13.73
2018-11-03T20:00:25.926Z,14.83
2018-11-03T20:02:29.084Z,14.37
2018-11-03T20:04:34.053Z,14.37
2018-11-03T20:06:37.213Z,14.57
2018-11-03T20:08:40.250Z,16.10
2018-11-03T20:10:43.244Z,22.17
2018-11-03T20:12:47.341Z,17.73
2018-11-03T20:14:50.700Z,19.47
2018-11-03T20:16:54.043Z,18.27
2018-11-03T20:18:57.018Z,16.87
2018-11-03T20:20:59.997Z,19.67
2018-11-03T20:23:05.285Z,22.00
2018-11-03T20:25:09.891Z,26.77
2018-11-03T20:27:12.933Z,27.17
2018-11-03T20:29:15.968Z,18.17
2018-11-03T20:31:19.146Z,12.97
2018-11-03T20:33:23.350Z,11.07
2018-11-03T20:35:26.494Z,10.53
2018-11-03T20:37:29.467Z,10.40
2018-11-03T20:39:33.895Z,12.67
2018-11-03T20:41:38.492Z,12.40
2018-11-03T20:43:41.892Z,19.53
2018-11-03T20:45:44.891Z,24.23
2018-11-03T20:47:48.066Z,66.67
2018-11-03T20:49:51.071Z,29.53
2018-11-03T20:51:54.197Z,57.53
2018-11-03T20:53:57.320Z,24.10
2018-11-03T20:56:00.457Z,20.07
2018-11-03T20:58:05.835Z,14.27
2018-11-03T21:00:12.022Z,18.70
2018-11-03T21:02:15.223Z,17.33
2018-11-03T21:04:18.305Z,14.07
2018-11-03T21:06:21.368Z,15.37
2018-11-03T21:08:24.688Z,14.27
2018-11-03T21:10:27.653Z,18.07
2018-11-03T21:12:31.042Z,16.70
2018-11-03T21:14:35.837Z,15.97
2018-11-03T21:16:38.971Z,17.73
2018-11-03T21:18:42.049Z,15.53
2018-11-03T21:20:45.091Z,16.70
2018-11-03T21:22:48.148Z,16.53
2018-11-03T21:24:51.114Z,18.30
2018-11-03T21:26:54.284Z,16.43
2018-11-03T21:28:57.245Z,18.73
2018-11-03T21:31:00.348Z,16.03
2018-11-03T21:33:05.459Z,16.47
2018-11-03T21:35:08.223Z,17.20
2018-11-03T21:37:11.276Z,16.47
2018-11-03T21:39:15.208Z,18.77
2018-11-03T21:41:18.415Z,18.63
2018-11-03T21:43:21.486Z,18.43
2018-11-03T21:45:24.786Z,18.80
2018-11-03T21:47:27.815Z,17.67
2018-11-03T21:49:31.034Z,17.55
2018-11-03T21:51:35.366Z,17.63
2018-11-03T21:53:38.368Z,17.63
2018-11-03T21:55:41.546Z,16.10
2018-11-03T21:57:44.590Z,18.73
2018-11-03T21:59:47.710Z,21.90
2018-11-03T22:01:50.706Z,18.73
2018-11-03T22:03:53.963Z,17.77
2018-11-03T22:05:56.954Z,18.40
2018-11-03T22:08:00.135Z,20.57
2018-11-03T22:10:05.384Z,17.27
2018-11-03T22:12:08.446Z,16.25
2018-11-03T22:14:11.700Z,17.25
2018-11-03T22:16:14.639Z,17.65
2018-11-03T22:18:17.782Z,16.47
2018-11-03T22:20:21.145Z,20.20
2018-11-03T22:22:24.146Z,17.63
2018-11-03T22:24:27.445Z,16.63
2018-11-03T22:26:30.991Z,17.52
2018-11-03T22:28:35.283Z,17.43
2018-11-03T22:30:38.335Z,18.65
2018-11-03T22:32:41.492Z,18.90
2018-11-03T22:34:44.453Z,19.60
2018-11-03T22:36:47.538Z,19.87
2018-11-03T22:38:51.039Z,19.90
2018-11-03T22:40:54.089Z,24.73
2018-11-03T22:42:57.072Z,26.37
2018-11-03T22:45:00.099Z,25.47
2018-11-03T22:47:04.626Z,22.03
2018-11-03T22:49:07.604Z,20.33
2018-11-03T22:51:14.197Z,20.15
2018-11-03T22:53:17.363Z,18.90
2018-11-03T22:55:20.330Z,19.07
2018-11-03T22:57:23.362Z,18.07
2018-11-03T22:59:26.424Z,19.67
2018-11-03T23:01:29.418Z,19.27
2018-11-03T23:03:33.945Z,20.27
2018-11-03T23:05:36.956Z,20.53
2018-11-03T23:07:40.204Z,20.97
2018-11-03T23:09:43.229Z,18.20
2018-11-03T23:11:46.335Z,22.07
2018-11-03T23:13:49.385Z,20.93
2018-11-03T23:15:52.371Z,19.33
2018-11-03T23:17:55.501Z,20.60
2018-11-03T23:19:58.572Z,21.77
2018-11-03T23:22:03.207Z,19.73
2018-11-03T23:24:06.671Z,21.50
2018-11-03T23:26:09.682Z,21.70
2018-11-03T23:28:12.831Z,25.03
2018-11-03T23:30:15.940Z,24.23
2018-11-03T23:32:18.983Z,23.27
2018-11-03T23:34:22.018Z,21.80
2018-11-03T23:36:25.257Z,24.50
2018-11-03T23:38:28.504Z,23.63
2018-11-03T23:40:33.283Z,23.03
2018-11-03T23:42:36.406Z,25.27
2018-11-03T23:44:39.489Z,24.27
2018-11-03T23:46:42.770Z,27.20
2018-11-03T23:48:45.920Z,26.50
2018-11-03T23:50:49.082Z,28.93
2018-11-03T23:52:52.247Z,27.20
2018-11-03T23:54:55.305Z,30.87
2018-11-03T23:56:58.356Z,33.67
2018-11-03T23:59:02.762Z,41.47
